Time;durP1;ratioP1;P1;durP2;ratioP2;P2;SDS_P1;SDS_P2;PMS_P1;PMS_P2;Temp;Humidity;BMP_temperature;BMP_pressure;BME280_temperature;BME280_humidity;BME280_pressure;Samples;Min_cycle;Max_cycle;Signal;HPM_P1;HPM_P2
2022/10/06 00:00:29;;;;;;;8.60;6.30;;;;;;;10.82;84.45;100881.09;88405;1307;22779;-75
2022/10/06 00:02:54;;;;;;;8.50;6.30;;;;;;;10.80;84.39;100880.44;88502;1306;22125;-75
2022/10/06 00:04:59;;;;;;;11.20;6.90;;;;;;;10.78;84.51;100881.39;88771;1285;22033;-75
2022/10/06 00:07:05;;;;;;;8.30;6.10;;;;;;;10.76;84.44;100880.05;88607;1302;22753;-75
2022/10/06 00:09:10;;;;;;;8.80;6.90;;;;;;;10.74;84.49;100874.35;88510;1306;22763;-75
2022/10/06 00:11:16;;;;;;;8.40;6.60;;;;;;;10.73;84.54;100873.86;88775;1290;22039;-75
2022/10/06 00:13:22;;;;;;;7.90;5.70;;;;;;;10.72;84.75;100874.05;88792;1297;22015;-75
2022/10/06 00:15:30;;;;;;;7.70;5.80;;;;;;;10.71;84.85;100872.89;88780;1299;22081;-75
2022/10/06 00:17:35;;;;;;;7.00;5.90;;;;;;;10.70;84.86;100873.44;88800;1278;22759;-75
2022/10/06 00:19:41;;;;;;;12.70;6.80;;;;;;;10.69;84.88;100870.16;88768;1299;22040;-75
2022/10/06 00:21:46;;;;;;;11.10;7.90;;;;;;;10.67;85.13;100869.50;88804;1297;22200;-75
2022/10/06 00:23:52;;;;;;;18.10;6.60;;;;;;;10.67;85.11;100869.86;88789;1299;22611;-75
2022/10/06 00:25:57;;;;;;;7.50;5.70;;;;;;;10.67;85.00;100866.55;88499;1306;22085;-75
2022/10/06 00:28:03;;;;;;;8.50;6.00;;;;;;;10.66;85.04;100870.95;88768;1277;22038;-75
2022/10/06 00:30:11;;;;;;;8.70;5.80;;;;;;;10.64;85.18;100868.73;88759;1297;22032;-75
2022/10/06 00:32:17;;;;;;;8.10;6.20;;;;;;;10.63;85.21;100871.92;88515;1298;22058;-76
2022/10/06 00:34:22;;;;;;;11.40;5.80;;;;;;;10.62;85.37;100868.46;88503;1298;22081;-75
2022/10/06 00:36:28;;;;;;;6.80;6.20;;;;;;;10.62;85.53;100872.30;88734;1287;22121;-75
2022/10/06 00:38:34;;;;;;;8.90;6.50;;;;;;;10.61;85.41;100868.82;88473;1306;22095;-75
2022/10/06 00:40:44;;;;;;;9.30;6.30;;;;;;;10.61;85.29;100866.92;88506;1306;22074;-75
2022/10/06 00:42:54;;;;;;;9.70;5.60;;;;;;;10.60;85.36;100866.41;88778;1287;22018;-75
2022/10/06 00:45:01;;;;;;;;;;;;;;;10.59;85.24;100866.59;88762;1287;22230;-75
2022/10/06 00:47:06;;;;;;;5.90;5.30;;;;;;;10.55;85.68;100863.09;88776;1276;22098;-75
2022/10/06 00:49:15;;;;;;;7.00;5.70;;;;;;;10.55;85.56;100867.77;88751;1299;22042;-75
2022/10/06 00:51:21;;;;;;;9.30;5.80;;;;;;;10.56;85.65;100867.41;88479;1298;22044;-75
2022/10/06 00:53:27;;;;;;;10.10;6.00;;;;;;;10.56;85.74;100867.22;88506;1306;22662;-75
2022/10/06 00:55:32;;;;;;;8.70;5.80;;;;;;;10.56;85.90;100864.95;88774;1299;22094;-75
2022/10/06 00:57:38;;;;;;;9.50;6.00;;;;;;;10.56;85.73;100860.77;88762;1299;22059;-75
2022/10/06 00:59:43;;;;;;;6.40;5.30;;;;;;;10.56;85.83;100864.61;88504;1289;22061;-75
2022/10/06 01:01:53;;;;;;;9.80;6.20;;;;;;;10.57;86.23;100865.63;88770;1286;22096;-75
2022/10/06 01:03:59;;;;;;;;;;;;;;;10.57;86.11;100860.91;88640;1302;22303;-75
2022/10/06 01:06:06;;;;;;;11.50;5.50;;;;;;;10.55;86.30;100862.02;88653;1299;22065;-75
2022/10/06 01:08:12;;;;;;;11.10;6.00;;;;;;;10.57;86.39;100860.92;88512;1306;22066;-75
2022/10/06 01:10:17;;;;;;;7.30;5.30;;;;;;;10.57;86.33;100860.38;88511;1298;22055;-75
2022/10/06 01:12:24;;;;;;;5.60;4.80;;;;;;;10.57;86.21;100856.54;88416;1307;22117;-75
2022/10/06 01:14:29;;;;;;;8.70;5.80;;;;;;;10.57;86.34;100854.96;88757;1299;22634;-75
2022/10/06 01:16:36;;;;;;;9.80;5.30;;;;;;;10.58;86.34;100852.33;88766;1277;22053;-75
2022/10/06 01:18:42;;;;;;;6.60;4.90;;;;;;;10.59;86.43;100851.45;88767;1298;22040;-75
2022/10/06 01:20:50;;;;;;;6.70;5.80;;;;;;;10.59;86.43;100849.70;88482;1305;22053;-75
2022/10/06 01:22:59;;;;;;;5.80;4.90;;;;;;;10.59;86.54;100849.34;88493;1306;22047;-75
2022/10/06 01:25:06;;;;;;;7.50;5.30;;;;;;;10.60;86.52;100850.70;88494;1306;22052;-75
2022/10/06 01:27:12;;;;;;;5.70;4.90;;;;;;;10.61;86.45;100846.14;88743;1299;22034;-75
2022/10/06 01:29:17;;;;;;;7.30;4.80;;;;;;;10.62;86.59;100845.59;88505;1306;22174;-75
2022/10/06 01:31:23;;;;;;;7.10;5.10;;;;;;;10.63;86.44;100842.41;88489;1294;22096;-75
2022/10/06 01:33:29;;;;;;;9.60;4.40;;;;;;;10.64;86.47;100844.32;88749;1297;22041;-75
2022/10/06 01:35:34;;;;;;;7.30;4.70;;;;;;;10.64;86.57;100843.96;88748;1298;22725;-75
2022/10/06 01:37:42;;;;;;;9.00;4.70;;;;;;;10.65;86.64;100841.32;88477;1306;22111;-75
2022/10/06 01:39:48;;;;;;;10.60;5.60;;;;;;;10.67;86.52;100839.69;88765;1284;22670;-75
2022/10/06 01:41:54;;;;;;;9.90;5.30;;;;;;;10.68;86.63;100838.95;88468;1306;22756;-75
2022/10/06 01:44:00;;;;;;;8.40;4.90;;;;;;;10.68;86.54;100841.90;88767;1287;22034;-75
2022/10/06 01:46:05;;;;;;;8.60;4.00;;;;;;;10.68;86.45;100841.71;88602;1299;22061;-75
2022/10/06 01:48:11;;;;;;;6.30;4.40;;;;;;;10.68;86.56;100839.64;88514;1298;22101;-75
2022/10/06 01:50:16;;;;;;;5.90;4.60;;;;;;;10.69;86.67;100843.45;88772;1294;22608;-75
2022/10/06 01:52:23;;;;;;;8.50;4.70;;;;;;;10.69;86.55;100839.78;88503;1306;22079;-75
2022/10/06 01:54:29;;;;;;;6.00;4.20;;;;;;;10.71;86.78;100839.39;88508;1305;22115;-75
2022/10/06 01:56:34;;;;;;;7.40;4.60;;;;;;;10.73;86.86;100840.71;88485;1298;22083;-75
2022/10/06 01:58:40;;;;;;;4.50;3.90;;;;;;;10.75;86.72;100838.73;88768;1299;22014;-76
2022/10/06 02:00:45;;;;;;;11.70;4.90;;;;;;;10.74;86.51;100838.58;88758;1298;22188;-76
2022/10/06 02:02:51;;;;;;;5.90;4.70;;;;;;;10.75;86.70;100838.02;88609;1300;22652;-75
2022/10/06 02:04:56;;;;;;;5.90;4.00;;;;;;;10.77;86.69;100835.17;88767;1287;22117;-75
2022/10/06 02:07:02;;;;;;;6.20;4.30;;;;;;;10.78;86.71;100836.52;88758;1299;22063;-75
2022/10/06 02:09:08;;;;;;;5.90;4.60;;;;;;;10.80;86.73;100836.48;88779;1299;22582;-75
2022/10/06 02:11:14;;;;;;;6.40;4.60;;;;;;;10.82;86.84;100833.45;88491;1298;22105;-75
2022/10/06 02:13:20;;;;;;;5.90;4.30;;;;;;;10.83;86.81;100837.05;88747;1279;22079;-75
2022/10/06 02:15:27;;;;;;;8.90;4.20;;;;;;;10.85;86.65;100840.14;88755;1297;22033;-75
2022/10/06 02:17:32;;;;;;;6.00;4.20;;;;;;;10.86;86.52;100838.20;88512;1298;22064;-75
2022/10/06 02:19:38;;;;;;;5.70;4.40;;;;;;;10.86;86.64;100839.27;88485;1298;22040;-75
2022/10/06 02:21:44;;;;;;;5.80;4.80;;;;;;;10.86;86.70;100839.77;88727;1295;22049;-75
2022/10/06 02:23:50;;;;;;;6.20;3.90;;;;;;;10.86;86.61;100837.34;88750;1278;22114;-75
2022/10/06 02:26:00;;;;;;;5.30;4.80;;;;;;;10.87;86.76;100843.41;88484;1291;22057;-75
2022/10/06 02:28:06;;;;;;;12.00;4.50;;;;;;;10.86;86.81;100844.13;88484;1305;22048;-75
2022/10/06 02:30:13;;;;;;;9.80;4.80;;;;;;;10.87;86.70;100851.44;88588;1302;22152;-75
2022/10/06 02:32:18;;;;;;;5.00;4.50;;;;;;;10.86;86.56;100847.61;88759;1272;22052;-75
2022/10/06 02:34:24;;;;;;;4.60;4.10;;;;;;;10.85;86.47;100853.41;88487;1298;22112;-75
2022/10/06 02:36:29;;;;;;;5.80;4.60;;;;;;;10.83;86.41;100854.88;88772;1288;22596;-75
2022/10/06 02:38:35;;;;;;;12.60;5.00;;;;;;;10.80;86.47;100855.15;88506;1292;22099;-75
2022/10/06 02:40:41;;;;;;;7.00;4.40;;;;;;;10.77;86.40;100852.10;88747;1297;22032;-75
2022/10/06 02:42:46;;;;;;;7.70;4.20;;;;;;;10.75;86.45;100854.09;88518;1305;22061;-74
2022/10/06 02:44:52;;;;;;;9.00;4.60;;;;;;;10.72;86.48;100857.69;88778;1290;22681;-74
2022/10/06 02:46:58;;;;;;;9.20;4.20;;;;;;;10.69;86.57;100852.70;88422;1301;22262;-74
2022/10/06 02:49:07;;;;;;;6.80;4.40;;;;;;;10.66;86.53;100855.75;88434;1301;22184;-74
2022/10/06 02:51:14;;;;;;;5.20;4.50;;;;;;;10.62;86.41;100850.64;88768;1298;22024;-74
2022/10/06 02:53:19;;;;;;;6.80;4.30;;;;;;;10.59;86.71;100855.97;88725;1288;22044;-74
2022/10/06 02:55:26;;;;;;;5.20;4.30;;;;;;;10.58;86.74;100853.39;88761;1294;22810;-74
2022/10/06 02:57:31;;;;;;;10.00;5.40;;;;;;;10.57;86.87;100855.33;88517;1292;22147;-74
2022/10/06 02:59:37;;;;;;;6.10;4.80;;;;;;;10.56;86.85;100852.58;88753;1296;22788;-74
2022/10/06 03:01:43;;;;;;;5.40;4.10;;;;;;;10.54;86.84;100855.78;88737;1294;22053;-74
2022/10/06 03:03:48;;;;;;;5.50;4.40;;;;;;;10.53;87.00;100855.27;88739;1284;22084;-74
2022/10/06 03:06:01;;;;;;;7.60;4.50;;;;;;;10.51;86.98;100863.69;88460;1306;22047;-74
2022/10/06 03:08:09;;;;;;;5.40;4.50;;;;;;;10.50;87.00;100862.36;88480;1298;22213;-74
2022/10/06 03:10:14;;;;;;;4.80;4.40;;;;;;;10.47;86.98;100863.31;88482;1296;22588;-75
2022/10/06 03:12:20;;;;;;;9.10;4.80;;;;;;;10.45;87.07;100869.81;88498;1306;22057;-75
2022/10/06 03:14:26;;;;;;;4.40;4.00;;;;;;;10.43;87.14;100868.83;88748;1298;22697;-75
2022/10/06 03:16:33;;;;;;;7.20;4.80;;;;;;;10.41;87.25;100867.31;88759;1277;22131;-75
2022/10/06 03:18:38;;;;;;;6.10;4.90;;;;;;;10.39;87.14;100873.14;88501;1306;22716;-74
2022/10/06 03:20:44;;;;;;;7.40;4.80;;;;;;;10.38;87.35;100869.52;88503;1298;22081;-75
2022/10/06 03:22:52;;;;;;;10.20;5.20;;;;;;;10.36;87.42;100873.94;88483;1303;22081;-75
2022/10/06 03:24:57;;;;;;;6.20;4.10;;;;;;;10.34;87.64;100879.38;88699;1299;22057;-75
2022/10/06 03:27:03;;;;;;;5.60;4.30;;;;;;;10.32;87.51;100875.09;88501;1306;22057;-75
2022/10/06 03:29:09;;;;;;;6.30;3.90;;;;;;;10.30;87.64;100876.19;88723;1298;22094;-75
2022/10/06 03:31:15;;;;;;;8.00;4.70;;;;;;;10.27;87.52;100878.88;88791;1299;22048;-75
2022/10/06 03:33:20;;;;;;;7.10;4.90;;;;;;;10.26;87.57;100880.84;88787;1298;22613;-75
2022/10/06 03:35:26;;;;;;;8.80;4.60;;;;;;;10.24;87.76;100884.02;88771;1285;22050;-75
2022/10/06 03:37:31;;;;;;;5.80;4.00;;;;;;;10.22;87.79;100883.17;88744;1299;22116;-75
2022/10/06 03:39:37;;;;;;;11.70;5.10;;;;;;;10.21;87.93;100883.21;88491;1298;22617;-75
2022/10/06 03:41:42;;;;;;;5.50;4.70;;;;;;;10.19;87.86;100882.73;88735;1299;22046;-75
2022/10/06 03:43:49;;;;;;;6.20;4.70;;;;;;;10.16;87.67;100882.83;88745;1283;22718;-75
2022/10/06 03:45:59;;;;;;;7.00;4.90;;;;;;;10.13;87.84;100885.02;88497;1298;22437;-75
2022/10/06 03:48:04;;;;;;;;;;;;;;;10.10;87.93;100886.30;88510;1306;22824;-75
2022/10/06 03:50:10;;;;;;;7.20;4.60;;;;;;;10.06;88.18;100889.91;88478;1298;22078;-75
2022/10/06 03:52:16;;;;;;;5.90;4.50;;;;;;;10.05;88.18;100889.41;88475;1306;22068;-75
2022/10/06 03:54:21;;;;;;;5.60;4.70;;;;;;;10.03;88.22;100891.55;88774;1299;22064;-75
2022/10/06 03:56:30;;;;;;;6.80;4.90;;;;;;;10.01;88.19;100891.27;88729;1276;22044;-75
2022/10/06 03:58:37;;;;;;;7.80;4.60;;;;;;;9.98;88.31;100894.47;88769;1276;22049;-75
2022/10/06 04:00:43;;;;;;;5.70;4.50;;;;;;;9.98;88.44;100893.96;88492;1298;22103;-75
2022/10/06 04:02:49;;;;;;;4.40;3.90;;;;;;;9.98;88.50;100898.67;88497;1306;22653;-75
2022/10/06 04:04:55;;;;;;;7.00;4.70;;;;;;;9.97;88.59;100898.17;88501;1306;22144;-75
2022/10/06 04:07:01;;;;;;;5.30;4.10;;;;;;;9.97;88.49;100896.77;88765;1293;22039;-75
2022/10/06 04:09:07;;;;;;;4.90;3.90;;;;;;;9.97;88.72;100895.91;88515;1291;22093;-75
2022/10/06 04:11:14;;;;;;;6.40;4.30;;;;;;;9.98;88.85;100896.92;88502;1301;22077;-75
2022/10/06 04:13:20;;;;;;;4.90;3.70;;;;;;;10.00;89.03;100896.16;88801;1294;22041;-75
2022/10/06 04:15:26;;;;;;;6.90;4.70;;;;;;;10.03;89.28;100899.57;88805;1287;22043;-75
2022/10/06 04:17:32;;;;;;;5.00;4.40;;;;;;;10.05;89.21;100899.00;88786;1298;22040;-75
2022/10/06 04:19:37;;;;;;;4.80;3.60;;;;;;;10.06;89.17;100902.64;88769;1297;22183;-75
2022/10/06 04:21:44;;;;;;;9.60;4.60;;;;;;;10.08;89.22;100907.45;88787;1299;22674;-75
2022/10/06 04:23:51;;;;;;;6.70;4.20;;;;;;;10.11;89.27;100909.14;88771;1297;22033;-75
2022/10/06 04:26:01;;;;;;;4.90;4.10;;;;;;;10.11;89.21;100908.96;88454;1306;22103;-75
2022/10/06 04:28:07;;;;;;;7.70;4.20;;;;;;;10.12;89.29;100907.89;88753;1294;22061;-75
2022/10/06 04:30:13;;;;;;;6.40;4.50;;;;;;;10.12;89.50;100911.17;88475;1306;22055;-75
2022/10/06 04:32:19;;;;;;;7.20;4.70;;;;;;;10.14;89.23;100910.95;88744;1299;22747;-75
2022/10/06 04:34:25;;;;;;;4.60;3.70;;;;;;;10.14;89.18;100912.70;88748;1299;22494;-75
2022/10/06 04:36:32;;;;;;;9.10;5.00;;;;;;;10.13;89.27;100917.44;88506;1298;22716;-75
2022/10/06 04:38:38;;;;;;;6.20;4.30;;;;;;;10.14;89.41;100920.38;88633;1299;22748;-75
2022/10/06 04:40:43;;;;;;;6.70;4.60;;;;;;;10.13;89.30;100921.95;88505;1303;22058;-75
2022/10/06 04:42:49;;;;;;;4.40;4.00;;;;;;;10.11;89.21;100922.36;88704;1299;22064;-75
2022/10/06 04:44:55;;;;;;;8.50;4.90;;;;;;;10.09;89.13;100928.67;88482;1306;22098;-75
2022/10/06 04:47:01;;;;;;;6.50;4.30;;;;;;;10.08;89.21;100929.06;88752;1291;22619;-75
2022/10/06 04:49:06;;;;;;;5.00;4.00;;;;;;;10.07;89.20;100934.66;88779;1291;22248;-75
2022/10/06 04:51:13;;;;;;;6.20;4.30;;;;;;;10.05;89.24;100935.41;88761;1297;22125;-75
2022/10/06 04:53:18;;;;;;;5.20;4.70;;;;;;;10.07;89.28;100937.48;88770;1287;22029;-75
2022/10/06 04:55:24;;;;;;;6.30;4.70;;;;;;;10.07;89.42;100937.63;88756;1294;21990;-75
2022/10/06 04:57:30;;;;;;;10.20;4.30;;;;;;;10.08;89.38;100940.56;88508;1288;22135;-75
2022/10/06 05:02:01;;;;;;;6.50;4.30;;;;;;;10.08;89.29;100947.73;88709;1299;22183;-75
2022/10/06 05:04:07;;;;;;;4.90;4.10;;;;;;;10.07;89.34;100946.69;88764;1299;22039;-75
2022/10/06 05:06:14;;;;;;;7.00;4.70;;;;;;;10.09;89.52;100952.40;88731;1299;22085;-75
2022/10/06 05:08:20;;;;;;;8.50;4.10;;;;;;;10.10;89.51;100954.66;88504;1306;22623;-75
2022/10/06 05:10:26;;;;;;;7.00;4.30;;;;;;;10.12;89.86;100959.30;88492;1305;22088;-75
2022/10/06 05:12:31;;;;;;;6.00;5.40;;;;;;;10.14;89.74;100964.47;88516;1283;362974;-71
2022/10/06 05:14:37;;;;;;;7.30;4.80;;;;;;;10.14;89.77;100962.73;88772;1299;22067;-75
2022/10/06 05:16:43;;;;;;;5.00;4.30;;;;;;;10.15;89.87;100965.49;88748;1299;22633;-74
2022/10/06 05:18:49;;;;;;;5.80;4.80;;;;;;;10.17;89.86;100967.53;88744;1299;22024;-74
2022/10/06 05:20:58;;;;;;;6.70;4.80;;;;;;;10.18;89.87;100971.85;88766;1276;22607;-73
2022/10/06 05:23:17;;;;;;;6.30;5.30;;;;;;;10.20;89.86;100972.68;88495;1305;22056;-75
2022/10/06 05:25:25;;;;;;;6.20;4.90;;;;;;;10.23;90.18;100969.99;88587;1287;22662;-76
2022/10/06 05:27:31;;;;;;;5.60;4.60;;;;;;;10.26;90.28;100972.72;88733;1299;22600;-74
2022/10/06 05:29:36;;;;;;;6.80;4.90;;;;;;;10.30;90.33;100972.11;88498;1306;22075;-74
2022/10/06 05:31:42;;;;;;;7.10;5.00;;;;;;;10.34;90.32;100971.12;88701;1299;22068;-74
2022/10/06 05:33:48;;;;;;;14.50;6.00;;;;;;;10.39;90.22;100972.20;88524;1306;22066;-74
2022/10/06 05:35:55;;;;;;;4.30;3.90;;;;;;;10.44;90.42;100972.23;88777;1284;22509;-74
2022/10/06 05:38:01;;;;;;;5.80;4.90;;;;;;;10.54;90.55;100973.00;88764;1287;22030;-74
2022/10/06 05:40:08;;;;;;;8.80;4.20;;;;;;;10.72;90.82;100978.59;88788;1293;22560;-75
2022/10/06 05:42:14;;;;;;;4.70;4.10;;;;;;;10.89;90.91;100980.19;88524;1306;22072;-75
2022/10/06 05:44:19;;;;;;;7.30;4.70;;;;;;;11.25;92.21;100977.52;88783;1284;22091;-75
2022/10/06 05:46:27;;;;;;;5.60;4.80;;;;;;;12.11;94.36;100975.22;88771;1299;22082;-75
2022/10/06 05:48:32;;;;;;;5.50;4.30;;;;;;;13.18;94.49;100979.35;88729;1283;22028;-75
2022/10/06 05:50:38;;;;;;;10.10;4.60;;;;;;;13.97;92.71;100977.06;88752;1299;22005;-75
2022/10/06 05:52:43;;;;;;;5.10;4.40;;;;;;;14.22;89.36;100985.27;88494;1306;22095;-74
2022/10/06 05:54:49;;;;;;;9.90;4.70;;;;;;;14.29;86.83;100991.64;88757;1299;22744;-74
2022/10/06 05:56:55;;;;;;;5.90;4.10;;;;;;;14.29;85.14;100997.95;88490;1298;22082;-74
2022/10/06 05:59:02;;;;;;;6.70;4.50;;;;;;;14.31;84.38;101001.37;88742;1284;22134;-74
2022/10/06 06:01:12;;;;;;;8.00;4.60;;;;;;;14.36;84.66;101005.04;88495;1306;22075;-74
2022/10/06 06:03:18;;;;;;;6.20;4.50;;;;;;;14.33;83.68;101007.60;88730;1298;22073;-75
2022/10/06 06:05:23;;;;;;;5.80;4.40;;;;;;;14.30;82.83;101012.31;88746;1299;22370;-75
2022/10/06 06:07:29;;;;;;;6.60;4.10;;;;;;;14.26;82.53;101011.09;88759;1284;22144;-75
2022/10/06 06:09:35;;;;;;;5.90;4.50;;;;;;;14.18;82.26;101010.90;88491;1298;22099;-75
2022/10/06 06:11:41;;;;;;;6.30;4.80;;;;;;;14.11;82.08;101016.98;88471;1306;22081;-75
2022/10/06 06:13:47;;;;;;;7.00;4.80;;;;;;;13.99;81.70;101018.53;88788;1287;22143;-75
2022/10/06 06:16:03;;;;;;;5.10;4.30;;;;;;;13.89;81.61;101023.13;88767;1283;22033;-75
2022/10/06 06:18:08;;;;;;;5.60;3.90;;;;;;;13.81;81.61;101029.45;88774;1284;22047;-75
2022/10/06 06:20:14;;;;;;;4.80;4.00;;;;;;;13.76;81.54;101033.34;88749;1294;22574;-75
2022/10/06 06:22:20;;;;;;;5.70;4.50;;;;;;;13.75;81.77;101036.73;88743;1294;22039;-76
2022/10/06 06:24:26;;;;;;;6.20;3.90;;;;;;;13.74;81.84;101042.52;88492;1298;22758;-75
2022/10/06 06:26:33;;;;;;;6.50;4.50;;;;;;;13.75;81.95;101047.61;88502;1291;22741;-75
2022/10/06 06:28:40;;;;;;;8.10;4.10;;;;;;;13.75;81.86;101049.00;88759;1284;22034;-75
2022/10/06 06:30:46;;;;;;;4.90;4.00;;;;;;;13.77;81.62;101059.09;88498;1306;22700;-74
2022/10/06 06:32:56;;;;;;;5.90;4.40;;;;;;;13.79;81.95;101058.65;88741;1284;22066;-74
2022/10/06 06:35:02;;;;;;;5.30;4.80;;;;;;;13.87;82.11;101060.59;88493;1298;22276;-74
2022/10/06 06:37:09;;;;;;;9.50;4.70;;;;;;;14.02;82.39;101063.50;88691;1291;22098;-75
2022/10/06 06:39:16;;;;;;;7.40;4.40;;;;;;;14.18;82.45;101070.04;88728;1287;22042;-74
2022/10/06 06:41:23;;;;;;;5.90;4.60;;;;;;;14.28;82.04;101072.60;88485;1306;22130;-74
2022/10/06 06:43:28;;;;;;;7.70;4.30;;;;;;;14.31;81.56;101074.07;88721;1297;22046;-74
2022/10/06 06:45:34;;;;;;;8.90;4.20;;;;;;;14.32;81.33;101076.98;88728;1287;22117;-74
2022/10/06 06:47:40;;;;;;;6.30;5.60;;;;;;;14.33;81.04;101078.87;88513;1298;22052;-74
2022/10/06 06:49:47;;;;;;;6.30;4.80;;;;;;;14.33;80.89;101083.25;88485;1298;22061;-74
2022/10/06 06:51:53;;;;;;;6.80;4.20;;;;;;;14.33;80.69;101087.64;88717;1284;22119;-74
2022/10/06 06:54:01;;;;;;;7.50;4.60;;;;;;;14.34;80.81;101095.34;88754;1284;22541;-74
2022/10/06 06:56:07;;;;;;;5.50;4.30;;;;;;;14.35;80.68;101095.14;88527;1298;22043;-74
2022/10/06 06:58:13;;;;;;;7.50;4.30;;;;;;;14.36;80.66;101097.70;88720;1299;22079;-74
2022/10/06 07:00:19;;;;;;;7.40;4.00;;;;;;;14.34;80.43;101098.85;88506;1306;22074;-74
2022/10/06 07:02:28;;;;;;;5.80;4.80;;;;;;;14.34;80.48;101100.42;88820;1284;22051;-74
2022/10/06 07:04:36;;;;;;;6.30;4.10;;;;;;;14.35;80.47;101107.04;88511;1306;22088;-75
2022/10/06 07:06:41;;;;;;;8.10;4.40;;;;;;;14.38;80.50;101109.92;88769;1294;22068;-75
2022/10/06 07:08:47;;;;;;;5.60;4.30;;;;;;;14.41;80.56;101115.73;88707;1299;22147;-76
2022/10/06 07:10:55;;;;;;;4.40;4.00;;;;;;;14.45;80.35;101119.11;88747;1294;22539;-75
2022/10/06 07:13:01;;;;;;;6.20;4.70;;;;;;;14.48;80.47;101121.27;88755;1299;22577;-75
2022/10/06 07:27:09;;;;;;;4.90;4.20;;;;;;;14.63;80.26;101120.29;88497;1306;22037;-75
2022/10/06 07:29:14;;;;;;;6.30;4.10;;;;;;;14.68;80.49;101125.52;88721;1293;22050;-75
2022/10/06 07:31:20;;;;;;;4.70;4.20;;;;;;;14.73;80.34;101129.34;88739;1297;22036;-75
2022/10/06 07:33:27;;;;;;;4.30;3.80;;;;;;;14.76;80.22;101128.31;88737;1294;22006;-75
2022/10/06 07:35:32;;;;;;;4.50;4.10;;;;;;;14.79;80.19;101128.36;88511;1298;22081;-75
2022/10/06 07:37:39;;;;;;;6.50;4.90;;;;;;;14.82;80.15;101135.98;88513;1298;22075;-75
2022/10/06 07:39:48;;;;;;;4.50;4.00;;;;;;;14.84;79.88;101132.54;88774;1297;22194;-75
2022/10/06 07:41:53;;;;;;;10.20;4.10;;;;;;;14.84;79.75;101131.15;88509;1299;22067;-75
2022/10/06 07:43:59;;;;;;;6.90;4.40;;;;;;;14.85;79.69;101136.55;88508;1306;22660;-75
2022/10/06 07:46:04;;;;;;;5.20;4.40;;;;;;;14.85;79.74;101136.00;88539;1298;22377;-75
2022/10/06 07:48:13;;;;;;;9.60;5.20;;;;;;;14.85;79.58;101135.48;88739;1299;22098;-75
2022/10/06 07:50:19;;;;;;;11.10;5.10;;;;;;;14.86;79.64;101128.77;88763;1292;22469;-75
2022/10/06 07:52:27;;;;;;;5.50;4.00;;;;;;;14.89;79.60;101131.13;88494;1306;22082;-75
2022/10/06 07:54:33;;;;;;;4.80;4.30;;;;;;;14.93;79.74;101134.80;88521;1298;22125;-75
2022/10/06 07:56:39;;;;;;;6.80;3.50;;;;;;;15.00;80.00;101140.45;88748;1292;22026;-75
2022/10/06 07:58:44;;;;;;;6.70;3.70;;;;;;;15.09;79.99;101140.79;88759;1299;22027;-75
2022/10/06 08:00:51;;;;;;;6.30;4.20;;;;;;;15.16;80.07;101144.64;88514;1298;22068;-75
2022/10/06 08:02:57;;;;;;;7.60;3.90;;;;;;;15.27;80.03;101150.31;88517;1298;22072;-75
2022/10/06 08:05:03;;;;;;;6.50;3.70;;;;;;;15.39;80.02;101154.02;88499;1305;22104;-75
2022/10/06 08:07:11;;;;;;;5.30;3.80;;;;;;;15.48;79.90;101150.77;88746;1288;22038;-75
2022/10/06 08:09:17;;;;;;;5.80;4.10;;;;;;;15.58;79.69;101151.91;88495;1305;22094;-75
2022/10/06 08:11:22;;;;;;;6.10;3.90;;;;;;;15.69;79.64;101152.64;88749;1299;22129;-75
2022/10/06 08:13:31;;;;;;;7.20;4.40;;;;;;;15.85;79.88;101155.27;88742;1293;22104;-75
2022/10/06 08:15:36;;;;;;;7.30;4.40;;;;;;;16.05;79.82;101152.51;88499;1306;22072;-75
2022/10/06 08:17:42;;;;;;;6.70;4.50;;;;;;;16.29;79.50;101153.80;88739;1294;22010;-75
2022/10/06 08:19:48;;;;;;;7.00;4.10;;;;;;;16.50;79.24;101150.48;88520;1306;22104;-75
2022/10/06 08:21:55;;;;;;;4.70;4.10;;;;;;;16.66;78.73;101148.27;88737;1299;22035;-75
2022/10/06 08:24:01;;;;;;;7.30;3.70;;;;;;;16.88;78.37;101148.06;88751;1298;22749;-75
2022/10/06 08:26:11;;;;;;;5.30;4.20;;;;;;;17.06;77.71;101153.63;88504;1306;22079;-75
2022/10/06 08:28:16;;;;;;;4.60;4.20;;;;;;;17.22;77.22;101149.80;88751;1287;22174;-75
2022/10/06 08:30:26;;;;;;;7.50;3.80;;;;;;;17.33;76.53;101152.70;88783;1285;22721;-75
2022/10/06 08:32:31;;;;;;;5.10;4.00;;;;;;;17.41;75.90;101154.38;88757;1299;22589;-75
2022/10/06 08:34:37;;;;;;;8.70;4.80;;;;;;;17.53;75.75;101148.42;88499;1298;22524;-75
2022/10/06 08:36:43;;;;;;;7.90;4.40;;;;;;;17.68;75.66;101148.52;88516;1306;22041;-75
2022/10/06 08:38:49;;;;;;;5.60;3.90;;;;;;;17.79;75.25;101151.43;88757;1299;22048;-75
2022/10/06 08:40:55;;;;;;;5.10;3.90;;;;;;;17.90;75.16;101146.98;88749;1294;22012;-75
2022/10/06 08:43:02;;;;;;;7.60;4.20;;;;;;;17.99;74.73;101147.68;88637;1299;22160;-73
2022/10/06 08:45:13;;;;;;;4.70;3.70;;;;;;;18.07;74.76;101158.17;88797;1287;22076;-74
2022/10/06 08:47:21;;;;;;;9.80;4.40;;;;;;;18.19;74.49;101164.21;88763;1299;22053;-74
2022/10/06 08:49:34;;;;;;;8.10;4.30;;;;;;;18.39;74.32;101171.17;88489;1298;22063;-74
2022/10/06 08:51:54;;;;;;;6.20;4.10;;;;;;;18.65;74.36;101170.92;88503;1306;22049;-74
2022/10/06 08:54:04;;;;;;;11.40;4.90;;;;;;;18.85;73.60;101170.81;88747;1288;22046;-74
2022/10/06 08:56:17;;;;;;;5.30;3.90;;;;;;;19.05;72.67;101177.36;88743;1290;22691;-75
2022/10/06 08:58:29;;;;;;;5.70;3.90;;;;;;;19.31;71.97;101182.14;88495;1288;22070;-75
2022/10/06 09:00:35;;;;;;;5.60;3.60;;;;;;;19.68;71.61;101187.12;88730;1285;22048;-75
2022/10/06 09:02:44;;;;;;;5.30;3.40;;;;;;;19.97;70.98;101191.31;88750;1288;22026;-75
2022/10/06 09:04:50;;;;;;;4.90;3.50;;;;;;;20.21;70.42;101188.69;88731;1285;22009;-75
2022/10/06 09:07:02;;;;;;;4.60;3.70;;;;;;;20.46;70.32;101191.50;88488;1306;22042;-75
2022/10/06 09:09:16;;;;;;;2.90;2.70;;;;;;;20.66;69.25;101193.16;88768;1294;22059;-75
2022/10/06 09:11:41;;;;;;;7.30;3.20;;;;;;;20.78;68.64;101198.05;88502;1306;22062;-75
2022/10/06 09:13:52;;;;;;;8.90;3.40;;;;;;;20.83;67.82;101207.77;88513;1298;22065;-75
2022/10/06 09:16:06;;;;;;;6.00;3.70;;;;;;;20.80;67.41;101209.56;88735;1289;22121;-75
2022/10/06 09:18:17;;;;;;;5.70;3.40;;;;;;;20.81;67.06;101212.35;88762;1299;22044;-75
2022/10/06 09:20:30;;;;;;;5.40;3.40;;;;;;;20.82;66.42;101215.15;88761;1299;22058;-75
2022/10/06 09:22:36;;;;;;;8.10;3.50;;;;;;;20.88;66.54;101213.30;88503;1281;22069;-75
2022/10/06 09:24:44;;;;;;;6.40;3.40;;;;;;;21.03;66.94;101208.70;88520;1292;22044;-75
2022/10/06 09:26:50;;;;;;;3.70;3.10;;;;;;;21.28;66.60;101211.13;88626;1302;22648;-75
2022/10/06 09:28:55;;;;;;;3.90;2.70;;;;;;;21.62;65.94;101207.15;88522;1306;22075;-75
2022/10/06 09:31:03;;;;;;;3.70;2.70;;;;;;;21.98;64.60;101213.79;88498;1291;22068;-75
2022/10/06 09:33:15;;;;;;;5.20;3.00;;;;;;;22.43;63.54;101214.80;88499;1306;22051;-75
2022/10/06 09:35:23;;;;;;;3.90;3.00;;;;;;;22.82;63.50;101214.31;88757;1295;22045;-75
2022/10/06 09:37:29;;;;;;;6.60;2.60;;;;;;;23.15;62.35;101218.91;88758;1299;22063;-75
2022/10/06 09:39:36;;;;;;;5.20;3.40;;;;;;;23.59;61.33;101218.19;88734;1293;22079;-76
2022/10/06 09:41:44;;;;;;;3.00;2.60;;;;;;;23.95;60.39;101225.27;88752;1292;22149;-76
2022/10/06 09:43:56;;;;;;;4.80;2.50;;;;;;;24.33;59.16;101223.42;88755;1284;22051;-76
2022/10/06 09:46:28;;;;;;;5.40;2.60;;;;;;;24.49;57.89;101227.48;88734;1293;22024;-76
2022/10/06 09:48:34;;;;;;;7.40;2.50;;;;;;;24.46;57.44;101234.34;88781;1299;22739;-76
2022/10/06 09:50:40;;;;;;;2.30;2.10;;;;;;;24.32;56.57;101244.41;88565;1306;22059;-76
2022/10/06 09:53:02;;;;;;;2.90;2.20;;;;;;;24.10;56.29;101241.02;88802;1287;22023;-76
2022/10/06 09:55:12;;;;;;;3.10;2.50;;;;;;;23.74;55.74;101245.46;88562;1305;22121;-76
2022/10/06 09:57:20;;;;;;;3.90;2.50;;;;;;;23.48;55.82;101248.92;88804;1299;22052;-76
2022/10/06 09:59:33;;;;;;;2.90;2.60;;;;;;;23.23;56.10;101244.31;88712;1281;22129;-76
2022/10/06 10:01:40;;;;;;;5.00;2.40;;;;;;;22.93;55.01;101245.20;88794;1291;22605;-76
2022/10/06 10:03:50;;;;;;;4.90;2.80;;;;;;;22.59;56.84;101251.13;88558;1306;22065;-76
2022/10/06 10:05:55;;;;;;;;;;;;;;;22.43;57.65;101250.35;88805;1299;22246;-76